sensor_id;sensor_type;location;lat;lon;timestamp;P1;durP1;ratioP1;P2;durP2;ratioP2
14369;SDS011;7268;50.792;0.252;2023-04-09T00:02:04;3.55;;;1.52;;
14369;SDS011;7268;50.792;0.252;2023-04-09T00:04:32;2.33;;;2.05;;
14369;SDS011;7268;50.792;0.252;2023-04-09T00:07:00;4.22;;;1.48;;
14369;SDS011;7268;50.792;0.252;2023-04-09T00:09:27;6.65;;;2.70;;
14369;SDS011;7268;50.792;0.252;2023-04-09T00:11:54;3.63;;;1.83;;
14369;SDS011;7268;50.792;0.252;2023-04-09T00:14:22;6.50;;;2.50;;
14369;SDS011;7268;50.792;0.252;2023-04-09T00:16:50;6.70;;;2.92;;
14369;SDS011;7268;50.792;0.252;2023-04-09T00:19:17;3.53;;;1.80;;
14369;SDS011;7268;50.792;0.252;2023-04-09T00:21:44;6.15;;;2.67;;
14369;SDS011;7268;50.792;0.252;2023-04-09T00:24:11;6.45;;;3.15;;
14369;SDS011;7268;50.792;0.252;2023-04-09T00:26:39;11.38;;;3.13;;
14369;SDS011;7268;50.792;0.252;2023-04-09T00:29:06;5.22;;;2.92;;
14369;SDS011;7268;50.792;0.252;2023-04-09T00:31:33;7.00;;;2.85;;
14369;SDS011;7268;50.792;0.252;2023-04-09T00:34:01;8.65;;;3.17;;
14369;SDS011;7268;50.792;0.252;2023-04-09T00:36:28;8.52;;;3.38;;
14369;SDS011;7268;50.792;0.252;2023-04-09T00:38:56;7.13;;;2.13;;
14369;SDS011;7268;50.792;0.252;2023-04-09T00:41:24;7.00;;;3.20;;
14369;SDS011;7268;50.792;0.252;2023-04-09T00:43:51;7.90;;;4.30;;
14369;SDS011;7268;50.792;0.252;2023-04-09T00:46:18;10.27;;;3.85;;
14369;SDS011;7268;50.792;0.252;2023-04-09T00:48:46;12.90;;;4.15;;
14369;SDS011;7268;50.792;0.252;2023-04-09T00:51:13;5.13;;;3.58;;
14369;SDS011;7268;50.792;0.252;2023-04-09T00:53:40;5.05;;;2.53;;
14369;SDS011;7268;50.792;0.252;2023-04-09T00:56:10;10.02;;;3.50;;
14369;SDS011;7268;50.792;0.252;2023-04-09T00:58:39;6.97;;;4.85;;
14369;SDS011;7268;50.792;0.252;2023-04-09T01:01:07;7.63;;;3.65;;
14369;SDS011;7268;50.792;0.252;2023-04-09T01:03:34;7.97;;;4.35;;
14369;SDS011;7268;50.792;0.252;2023-04-09T01:08:48;3.22;;;2.92;;
14369;SDS011;7268;50.792;0.252;2023-04-09T01:14:05;7.18;;;3.88;;
14369;SDS011;7268;50.792;0.252;2023-04-09T01:16:34;4.65;;;2.95;;
14369;SDS011;7268;50.792;0.252;2023-04-09T01:19:09;6.07;;;3.58;;
14369;SDS011;7268;50.792;0.252;2023-04-09T01:21:42;5.18;;;3.92;;
14369;SDS011;7268;50.792;0.252;2023-04-09T01:29:11;4.38;;;2.05;;
14369;SDS011;7268;50.792;0.252;2023-04-09T01:31:39;4.38;;;2.75;;
14369;SDS011;7268;50.792;0.252;2023-04-09T01:34:08;7.65;;;2.92;;
14369;SDS011;7268;50.792;0.252;2023-04-09T01:36:36;6.75;;;3.63;;
14369;SDS011;7268;50.792;0.252;2023-04-09T01:39:06;7.22;;;3.55;;
14369;SDS011;7268;50.792;0.252;2023-04-09T01:41:33;7.22;;;3.78;;
14369;SDS011;7268;50.792;0.252;2023-04-09T01:44:02;8.70;;;4.43;;
14369;SDS011;7268;50.792;0.252;2023-04-09T01:46:29;6.53;;;4.15;;
14369;SDS011;7268;50.792;0.252;2023-04-09T01:48:57;13.73;;;5.78;;
14369;SDS011;7268;50.792;0.252;2023-04-09T01:51:25;6.32;;;4.30;;
14369;SDS011;7268;50.792;0.252;2023-04-09T01:53:53;8.88;;;4.80;;
14369;SDS011;7268;50.792;0.252;2023-04-09T01:56:20;6.57;;;3.80;;
14369;SDS011;7268;50.792;0.252;2023-04-09T01:58:47;8.00;;;3.80;;
14369;SDS011;7268;50.792;0.252;2023-04-09T02:01:17;7.38;;;4.30;;
14369;SDS011;7268;50.792;0.252;2023-04-09T02:03:55;9.18;;;4.35;;
14369;SDS011;7268;50.792;0.252;2023-04-09T02:06:28;8.07;;;4.07;;
14369;SDS011;7268;50.792;0.252;2023-04-09T02:08:59;9.18;;;4.22;;
14369;SDS011;7268;50.792;0.252;2023-04-09T02:11:28;7.30;;;4.35;;
14369;SDS011;7268;50.792;0.252;2023-04-09T02:13:55;6.47;;;4.55;;
14369;SDS011;7268;50.792;0.252;2023-04-09T02:16:22;8.75;;;5.07;;
14369;SDS011;7268;50.792;0.252;2023-04-09T02:18:52;6.82;;;3.80;;
14369;SDS011;7268;50.792;0.252;2023-04-09T02:21:22;9.48;;;4.43;;
14369;SDS011;7268;50.792;0.252;2023-04-09T02:23:49;6.72;;;3.95;;
14369;SDS011;7268;50.792;0.252;2023-04-09T02:26:16;7.32;;;3.42;;
14369;SDS011;7268;50.792;0.252;2023-04-09T02:28:44;8.57;;;4.00;;
14369;SDS011;7268;50.792;0.252;2023-04-09T02:31:11;6.22;;;3.67;;
14369;SDS011;7268;50.792;0.252;2023-04-09T02:33:38;5.90;;;3.22;;
14369;SDS011;7268;50.792;0.252;2023-04-09T02:36:06;8.50;;;4.13;;
14369;SDS011;7268;50.792;0.252;2023-04-09T02:38:33;6.28;;;2.13;;
14369;SDS011;7268;50.792;0.252;2023-04-09T02:41:00;7.07;;;3.40;;
14369;SDS011;7268;50.792;0.252;2023-04-09T02:43:27;7.47;;;2.85;;
14369;SDS011;7268;50.792;0.252;2023-04-09T02:45:55;12.32;;;3.67;;
14369;SDS011;7268;50.792;0.252;2023-04-09T02:48:22;7.15;;;2.85;;
14369;SDS011;7268;50.792;0.252;2023-04-09T02:50:49;9.40;;;4.10;;
14369;SDS011;7268;50.792;0.252;2023-04-09T02:53:17;5.95;;;3.55;;
14369;SDS011;7268;50.792;0.252;2023-04-09T02:55:46;4.65;;;2.13;;
14369;SDS011;7268;50.792;0.252;2023-04-09T02:58:14;8.07;;;2.58;;
14369;SDS011;7268;50.792;0.252;2023-04-09T03:00:41;6.13;;;2.63;;
14369;SDS011;7268;50.792;0.252;2023-04-09T03:03:08;5.55;;;2.92;;
14369;SDS011;7268;50.792;0.252;2023-04-09T03:05:36;5.15;;;3.15;;
14369;SDS011;7268;50.792;0.252;2023-04-09T03:08:04;7.45;;;3.00;;
14369;SDS011;7268;50.792;0.252;2023-04-09T03:10:31;5.10;;;3.88;;
14369;SDS011;7268;50.792;0.252;2023-04-09T03:12:58;6.82;;;2.90;;
14369;SDS011;7268;50.792;0.252;2023-04-09T03:15:26;7.15;;;3.13;;
14369;SDS011;7268;50.792;0.252;2023-04-09T03:17:53;9.23;;;3.90;;
14369;SDS011;7268;50.792;0.252;2023-04-09T03:20:20;6.15;;;3.95;;
14369;SDS011;7268;50.792;0.252;2023-04-09T03:22:48;10.68;;;4.30;;
14369;SDS011;7268;50.792;0.252;2023-04-09T03:25:15;8.00;;;4.15;;
14369;SDS011;7268;50.792;0.252;2023-04-09T03:27:44;10.70;;;5.38;;
14369;SDS011;7268;50.792;0.252;2023-04-09T03:30:12;5.18;;;3.78;;
14369;SDS011;7268;50.792;0.252;2023-04-09T03:32:39;3.90;;;2.38;;
14369;SDS011;7268;50.792;0.252;2023-04-09T03:35:06;5.30;;;3.65;;
14369;SDS011;7268;50.792;0.252;2023-04-09T03:37:34;4.53;;;3.05;;
14369;SDS011;7268;50.792;0.252;2023-04-09T03:40:01;9.13;;;3.50;;
14369;SDS011;7268;50.792;0.252;2023-04-09T03:42:29;9.90;;;4.75;;
14369;SDS011;7268;50.792;0.252;2023-04-09T03:44:56;6.45;;;2.63;;
14369;SDS011;7268;50.792;0.252;2023-04-09T03:47:23;7.07;;;3.97;;
14369;SDS011;7268;50.792;0.252;2023-04-09T03:49:51;4.68;;;3.13;;
14369;SDS011;7268;50.792;0.252;2023-04-09T03:52:18;7.22;;;3.85;;
14369;SDS011;7268;50.792;0.252;2023-04-09T03:54:45;8.55;;;4.82;;
14369;SDS011;7268;50.792;0.252;2023-04-09T03:57:13;7.35;;;4.47;;
14369;SDS011;7268;50.792;0.252;2023-04-09T03:59:40;7.00;;;3.95;;
14369;SDS011;7268;50.792;0.252;2023-04-09T04:02:07;6.95;;;2.53;;
14369;SDS011;7268;50.792;0.252;2023-04-09T04:04:35;15.18;;;5.22;;
14369;SDS011;7268;50.792;0.252;2023-04-09T04:07:02;6.70;;;3.70;;
14369;SDS011;7268;50.792;0.252;2023-04-09T04:09:30;8.60;;;4.70;;
14369;SDS011;7268;50.792;0.252;2023-04-09T04:11:57;9.82;;;3.58;;
14369;SDS011;7268;50.792;0.252;2023-04-09T04:14:24;8.07;;;4.60;;
14369;SDS011;7268;50.792;0.252;2023-04-09T04:16:52;7.07;;;4.03;;
14369;SDS011;7268;50.792;0.252;2023-04-09T04:19:19;13.05;;;5.55;;
14369;SDS011;7268;50.792;0.252;2023-04-09T04:21:46;6.90;;;3.50;;
14369;SDS011;7268;50.792;0.252;2023-04-09T04:24:13;9.93;;;4.20;;
14369;SDS011;7268;50.792;0.252;2023-04-09T04:26:41;11.48;;;3.63;;
14369;SDS011;7268;50.792;0.252;2023-04-09T04:29:08;7.25;;;4.38;;
14369;SDS011;7268;50.792;0.252;2023-04-09T04:31:35;6.68;;;4.60;;
14369;SDS011;7268;50.792;0.252;2023-04-09T04:34:03;6.95;;;2.90;;
14369;SDS011;7268;50.792;0.252;2023-04-09T04:36:30;6.22;;;3.25;;
14369;SDS011;7268;50.792;0.252;2023-04-09T04:38:57;6.47;;;3.55;;
14369;SDS011;7268;50.792;0.252;2023-04-09T04:41:24;6.18;;;3.50;;
14369;SDS011;7268;50.792;0.252;2023-04-09T04:43:52;11.77;;;3.78;;
14369;SDS011;7268;50.792;0.252;2023-04-09T04:46:19;8.52;;;4.10;;
14369;SDS011;7268;50.792;0.252;2023-04-09T04:48:46;11.05;;;4.40;;
14369;SDS011;7268;50.792;0.252;2023-04-09T04:51:14;7.75;;;3.38;;
14369;SDS011;7268;50.792;0.252;2023-04-09T04:53:41;8.80;;;3.72;;
14369;SDS011;7268;50.792;0.252;2023-04-09T04:56:14;9.05;;;4.72;;
14369;SDS011;7268;50.792;0.252;2023-04-09T04:58:41;8.77;;;5.60;;
14369;SDS011;7268;50.792;0.252;2023-04-09T05:01:09;10.77;;;5.35;;
14369;SDS011;7268;50.792;0.252;2023-04-09T05:03:36;8.52;;;3.45;;
14369;SDS011;7268;50.792;0.252;2023-04-09T05:06:04;9.32;;;4.43;;
14369;SDS011;7268;50.792;0.252;2023-04-09T05:08:31;15.55;;;6.32;;
14369;SDS011;7268;50.792;0.252;2023-04-09T05:10:58;13.90;;;6.05;;
14369;SDS011;7268;50.792;0.252;2023-04-09T05:13:26;12.45;;;6.45;;
14369;SDS011;7268;50.792;0.252;2023-04-09T05:15:53;4.35;;;2.65;;
14369;SDS011;7268;50.792;0.252;2023-04-09T05:18:20;9.30;;;4.68;;
14369;SDS011;7268;50.792;0.252;2023-04-09T05:20:48;8.73;;;5.03;;
14369;SDS011;7268;50.792;0.252;2023-04-09T05:23:15;10.23;;;4.35;;
14369;SDS011;7268;50.792;0.252;2023-04-09T05:25:43;11.48;;;5.68;;
14369;SDS011;7268;50.792;0.252;2023-04-09T05:28:10;10.90;;;3.17;;
14369;SDS011;7268;50.792;0.252;2023-04-09T05:30:37;8.70;;;3.65;;
14369;SDS011;7268;50.792;0.252;2023-04-09T05:33:05;12.52;;;6.22;;
14369;SDS011;7268;50.792;0.252;2023-04-09T05:35:32;10.45;;;4.70;;
14369;SDS011;7268;50.792;0.252;2023-04-09T05:37:59;11.93;;;4.30;;
14369;SDS011;7268;50.792;0.252;2023-04-09T05:40:27;11.32;;;5.13;;
14369;SDS011;7268;50.792;0.252;2023-04-09T05:42:54;7.18;;;4.32;;
14369;SDS011;7268;50.792;0.252;2023-04-09T05:45:21;15.07;;;6.07;;
14369;SDS011;7268;50.792;0.252;2023-04-09T05:47:49;11.07;;;5.43;;
14369;SDS011;7268;50.792;0.252;2023-04-09T05:50:16;11.10;;;5.50;;
14369;SDS011;7268;50.792;0.252;2023-04-09T05:52:44;14.80;;;6.00;;
14369;SDS011;7268;50.792;0.252;2023-04-09T05:55:11;7.22;;;3.88;;
14369;SDS011;7268;50.792;0.252;2023-04-09T05:57:39;9.07;;;3.95;;
14369;SDS011;7268;50.792;0.252;2023-04-09T06:00:07;11.52;;;6.80;;
14369;SDS011;7268;50.792;0.252;2023-04-09T06:02:34;12.40;;;5.30;;
14369;SDS011;7268;50.792;0.252;2023-04-09T06:05:02;12.25;;;6.03;;
14369;SDS011;7268;50.792;0.252;2023-04-09T06:07:29;10.05;;;4.25;;
14369;SDS011;7268;50.792;0.252;2023-04-09T06:09:57;15.70;;;6.90;;
14369;SDS011;7268;50.792;0.252;2023-04-09T06:12:24;15.82;;;5.40;;
14369;SDS011;7268;50.792;0.252;2023-04-09T06:14:51;14.63;;;5.57;;
14369;SDS011;7268;50.792;0.252;2023-04-09T06:17:19;14.15;;;6.07;;
14369;SDS011;7268;50.792;0.252;2023-04-09T06:19:46;11.63;;;6.95;;
14369;SDS011;7268;50.792;0.252;2023-04-09T06:22:13;10.93;;;5.95;;
14369;SDS011;7268;50.792;0.252;2023-04-09T06:24:41;16.92;;;9.18;;
14369;SDS011;7268;50.792;0.252;2023-04-09T06:27:08;18.73;;;6.85;;
14369;SDS011;7268;50.792;0.252;2023-04-09T06:29:35;16.80;;;7.55;;
14369;SDS011;7268;50.792;0.252;2023-04-09T06:32:03;13.95;;;6.07;;
14369;SDS011;7268;50.792;0.252;2023-04-09T06:34:31;13.65;;;7.38;;
14369;SDS011;7268;50.792;0.252;2023-04-09T06:36:58;13.07;;;6.65;;
14369;SDS011;7268;50.792;0.252;2023-04-09T06:39:25;17.70;;;7.45;;
14369;SDS011;7268;50.792;0.252;2023-04-09T06:41:53;16.02;;;5.57;;
14369;SDS011;7268;50.792;0.252;2023-04-09T06:44:20;12.48;;;6.90;;
14369;SDS011;7268;50.792;0.252;2023-04-09T06:46:49;11.90;;;4.35;;
14369;SDS011;7268;50.792;0.252;2023-04-09T06:49:17;19.58;;;8.10;;
14369;SDS011;7268;50.792;0.252;2023-04-09T06:51:44;13.80;;;6.13;;
14369;SDS011;7268;50.792;0.252;2023-04-09T06:54:12;14.18;;;5.82;;
14369;SDS011;7268;50.792;0.252;2023-04-09T06:56:39;15.15;;;7.25;;
14369;SDS011;7268;50.792;0.252;2023-04-09T06:59:06;18.10;;;7.75;;
14369;SDS011;7268;50.792;0.252;2023-04-09T07:01:33;13.88;;;5.93;;
14369;SDS011;7268;50.792;0.252;2023-04-09T07:04:03;16.77;;;6.63;;
14369;SDS011;7268;50.792;0.252;2023-04-09T07:06:31;17.63;;;7.97;;
14369;SDS011;7268;50.792;0.252;2023-04-09T07:08:58;18.45;;;6.38;;
14369;SDS011;7268;50.792;0.252;2023-04-09T07:11:25;14.20;;;6.13;;
14369;SDS011;7268;50.792;0.252;2023-04-09T07:13:53;14.05;;;5.45;;
14369;SDS011;7268;50.792;0.252;2023-04-09T07:16:22;14.80;;;5.85;;
14369;SDS011;7268;50.792;0.252;2023-04-09T07:18:49;20.50;;;7.93;;
14369;SDS011;7268;50.792;0.252;2023-04-09T07:21:16;22.58;;;7.97;;
14369;SDS011;7268;50.792;0.252;2023-04-09T07:23:44;12.63;;;5.53;;
14369;SDS011;7268;50.792;0.252;2023-04-09T07:26:12;15.15;;;6.00;;
14369;SDS011;7268;50.792;0.252;2023-04-09T07:28:39;17.20;;;7.57;;
14369;SDS011;7268;50.792;0.252;2023-04-09T07:31:07;22.15;;;7.30;;
14369;SDS011;7268;50.792;0.252;2023-04-09T07:33:34;14.45;;;5.55;;
14369;SDS011;7268;50.792;0.252;2023-04-09T07:36:02;14.98;;;6.25;;
14369;SDS011;7268;50.792;0.252;2023-04-09T07:38:29;11.48;;;5.40;;
14369;SDS011;7268;50.792;0.252;2023-04-09T07:40:56;16.40;;;7.55;;
14369;SDS011;7268;50.792;0.252;2023-04-09T07:43:24;18.35;;;6.72;;
14369;SDS011;7268;50.792;0.252;2023-04-09T07:45:51;15.82;;;5.90;;
14369;SDS011;7268;50.792;0.252;2023-04-09T07:48:18;16.70;;;7.53;;
14369;SDS011;7268;50.792;0.252;2023-04-09T07:50:46;19.25;;;6.97;;
14369;SDS011;7268;50.792;0.252;2023-04-09T07:53:13;24.88;;;7.05;;
14369;SDS011;7268;50.792;0.252;2023-04-09T07:55:41;21.02;;;8.60;;
14369;SDS011;7268;50.792;0.252;2023-04-09T07:58:09;18.90;;;5.88;;
14369;SDS011;7268;50.792;0.252;2023-04-09T08:00:37;14.32;;;5.72;;
14369;SDS011;7268;50.792;0.252;2023-04-09T08:03:04;18.23;;;6.85;;
14369;SDS011;7268;50.792;0.252;2023-04-09T08:05:32;15.95;;;7.57;;
14369;SDS011;7268;50.792;0.252;2023-04-09T08:08:01;20.38;;;8.65;;
14369;SDS011;7268;50.792;0.252;2023-04-09T08:10:29;14.32;;;6.72;;
14369;SDS011;7268;50.792;0.252;2023-04-09T08:12:56;17.88;;;7.47;;
14369;SDS011;7268;50.792;0.252;2023-04-09T08:15:23;19.25;;;9.38;;
14369;SDS011;7268;50.792;0.252;2023-04-09T08:17:51;25.98;;;9.00;;
14369;SDS011;7268;50.792;0.252;2023-04-09T08:20:18;13.30;;;7.47;;
14369;SDS011;7268;50.792;0.252;2023-04-09T08:22:46;25.70;;;8.85;;
14369;SDS011;7268;50.792;0.252;2023-04-09T08:25:13;30.48;;;9.35;;
14369;SDS011;7268;50.792;0.252;2023-04-09T08:27:41;19.17;;;9.20;;
14369;SDS011;7268;50.792;0.252;2023-04-09T08:30:08;30.70;;;9.82;;
14369;SDS011;7268;50.792;0.252;2023-04-09T08:32:36;13.77;;;5.40;;
14369;SDS011;7268;50.792;0.252;2023-04-09T08:35:03;28.75;;;7.18;;
14369;SDS011;7268;50.792;0.252;2023-04-09T08:37:31;18.75;;;6.80;;
14369;SDS011;7268;50.792;0.252;2023-04-09T08:39:58;18.98;;;6.82;;
14369;SDS011;7268;50.792;0.252;2023-04-09T08:42:26;21.60;;;7.95;;
14369;SDS011;7268;50.792;0.252;2023-04-09T08:44:53;17.67;;;7.95;;
14369;SDS011;7268;50.792;0.252;2023-04-09T08:47:20;20.48;;;6.60;;
14369;SDS011;7268;50.792;0.252;2023-04-09T08:49:48;15.75;;;6.25;;
14369;SDS011;7268;50.792;0.252;2023-04-09T08:52:16;16.33;;;8.05;;
14369;SDS011;7268;50.792;0.252;2023-04-09T08:54:47;19.27;;;8.13;;
14369;SDS011;7268;50.792;0.252;2023-04-09T08:57:15;16.25;;;6.72;;
14369;SDS011;7268;50.792;0.252;2023-04-09T08:59:43;14.27;;;6.28;;
14369;SDS011;7268;50.792;0.252;2023-04-09T09:02:10;15.70;;;6.50;;
14369;SDS011;7268;50.792;0.252;2023-04-09T09:04:47;14.85;;;7.78;;
14369;SDS011;7268;50.792;0.252;2023-04-09T09:07:15;13.25;;;6.28;;
14369;SDS011;7268;50.792;0.252;2023-04-09T09:09:49;17.67;;;7.30;;
14369;SDS011;7268;50.792;0.252;2023-04-09T09:12:36;14.98;;;6.50;;
14369;SDS011;7268;50.792;0.252;2023-04-09T09:15:04;12.90;;;5.10;;
14369;SDS011;7268;50.792;0.252;2023-04-09T09:17:33;11.75;;;5.78;;
14369;SDS011;7268;50.792;0.252;2023-04-09T09:20:10;15.82;;;5.68;;
14369;SDS011;7268;50.792;0.252;2023-04-09T09:23:03;19.45;;;8.80;;
14369;SDS011;7268;50.792;0.252;2023-04-09T09:25:31;14.80;;;6.45;;
14369;SDS011;7268;50.792;0.252;2023-04-09T09:28:07;15.02;;;6.90;;
14369;SDS011;7268;50.792;0.252;2023-04-09T09:30:35;21.63;;;9.27;;
14369;SDS011;7268;50.792;0.252;2023-04-09T09:33:08;22.30;;;7.30;;
14369;SDS011;7268;50.792;0.252;2023-04-09T09:35:52;17.55;;;6.75;;
14369;SDS011;7268;50.792;0.252;2023-04-09T09:38:19;19.35;;;8.25;;
14369;SDS011;7268;50.792;0.252;2023-04-09T09:40:48;16.15;;;7.85;;
14369;SDS011;7268;50.792;0.252;2023-04-09T09:43:15;20.85;;;6.80;;
14369;SDS011;7268;50.792;0.252;2023-04-09T09:45:42;18.15;;;7.32;;
14369;SDS011;7268;50.792;0.252;2023-04-09T09:48:12;25.23;;;6.38;;
14369;SDS011;7268;50.792;0.252;2023-04-09T09:50:41;20.67;;;6.40;;
14369;SDS011;7268;50.792;0.252;2023-04-09T09:53:09;18.73;;;6.65;;
14369;SDS011;7268;50.792;0.252;2023-04-09T09:55:38;16.63;;;4.85;;
14369;SDS011;7268;50.792;0.252;2023-04-09T09:58:15;18.60;;;7.40;;
14369;SDS011;7268;50.792;0.252;2023-04-09T10:00:43;15.50;;;6.72;;
14369;SDS011;7268;50.792;0.252;2023-04-09T10:03:14;14.77;;;5.80;;
14369;SDS011;7268;50.792;0.252;2023-04-09T10:05:42;12.93;;;5.63;;
14369;SDS011;7268;50.792;0.252;2023-04-09T10:08:11;17.77;;;5.80;;
14369;SDS011;7268;50.792;0.252;2023-04-09T10:10:39;17.05;;;6.28;;
14369;SDS011;7268;50.792;0.252;2023-04-09T10:13:12;21.70;;;6.75;;
14369;SDS011;7268;50.792;0.252;2023-04-09T10:15:40;10.18;;;4.70;;
14369;SDS011;7268;50.792;0.252;2023-04-09T10:18:10;18.20;;;6.68;;
14369;SDS011;7268;50.792;0.252;2023-04-09T10:20:42;22.55;;;7.78;;
14369;SDS011;7268;50.792;0.252;2023-04-09T10:23:15;14.07;;;5.82;;
14369;SDS011;7268;50.792;0.252;2023-04-09T10:25:45;18.42;;;6.72;;
14369;SDS011;7268;50.792;0.252;2023-04-09T10:28:16;18.65;;;5.30;;
14369;SDS011;7268;50.792;0.252;2023-04-09T10:30:44;19.15;;;6.70;;
14369;SDS011;7268;50.792;0.252;2023-04-09T10:33:12;15.15;;;5.47;;
14369;SDS011;7268;50.792;0.252;2023-04-09T10:35:40;18.00;;;7.03;;
14369;SDS011;7268;50.792;0.252;2023-04-09T10:38:08;14.07;;;4.40;;
14369;SDS011;7268;50.792;0.252;2023-04-09T10:40:54;16.45;;;6.45;;
14369;SDS011;7268;50.792;0.252;2023-04-09T10:43:21;16.42;;;5.43;;
14369;SDS011;7268;50.792;0.252;2023-04-09T10:45:49;14.65;;;5.68;;
14369;SDS011;7268;50.792;0.252;2023-04-09T10:48:19;17.02;;;6.60;;
14369;SDS011;7268;50.792;0.252;2023-04-09T10:50:49;20.98;;;8.20;;
14369;SDS011;7268;50.792;0.252;2023-04-09T10:53:22;17.48;;;7.68;;
14369;SDS011;7268;50.792;0.252;2023-04-09T10:55:53;22.85;;;6.50;;
14369;SDS011;7268;50.792;0.252;2023-04-09T10:58:21;14.82;;;6.50;;
14369;SDS011;7268;50.792;0.252;2023-04-09T11:00:49;11.60;;;4.60;;
14369;SDS011;7268;50.792;0.252;2023-04-09T11:03:26;16.27;;;6.97;;
14369;SDS011;7268;50.792;0.252;2023-04-09T11:06:00;19.77;;;6.22;;
14369;SDS011;7268;50.792;0.252;2023-04-09T11:08:28;19.60;;;7.17;;
14369;SDS011;7268;50.792;0.252;2023-04-09T11:10:56;14.80;;;6.55;;
14369;SDS011;7268;50.792;0.252;2023-04-09T11:13:26;19.77;;;6.00;;
14369;SDS011;7268;50.792;0.252;2023-04-09T11:15:54;19.05;;;7.68;;
14369;SDS011;7268;50.792;0.252;2023-04-09T11:18:25;12.55;;;5.90;;
14369;SDS011;7268;50.792;0.252;2023-04-09T11:20:54;13.48;;;5.15;;
14369;SDS011;7268;50.792;0.252;2023-04-09T11:23:22;16.63;;;5.85;;
14369;SDS011;7268;50.792;0.252;2023-04-09T11:25:50;24.55;;;8.25;;
14369;SDS011;7268;50.792;0.252;2023-04-09T11:28:18;19.35;;;7.43;;
14369;SDS011;7268;50.792;0.252;2023-04-09T11:30:46;15.10;;;7.82;;
14369;SDS011;7268;50.792;0.252;2023-04-09T11:33:13;18.13;;;6.72;;
14369;SDS011;7268;50.792;0.252;2023-04-09T11:35:44;15.70;;;6.63;;
14369;SDS011;7268;50.792;0.252;2023-04-09T11:38:11;13.30;;;4.93;;
14369;SDS011;7268;50.792;0.252;2023-04-09T11:40:39;28.42;;;8.05;;
14369;SDS011;7268;50.792;0.252;2023-04-09T11:43:13;15.65;;;6.22;;
14369;SDS011;7268;50.792;0.252;2023-04-09T11:45:46;18.52;;;6.80;;
14369;SDS011;7268;50.792;0.252;2023-04-09T11:48:14;17.80;;;6.63;;
14369;SDS011;7268;50.792;0.252;2023-04-09T11:50:43;25.95;;;9.13;;
14369;SDS011;7268;50.792;0.252;2023-04-09T11:53:18;15.02;;;6.38;;
14369;SDS011;7268;50.792;0.252;2023-04-09T11:55:46;24.27;;;8.82;;
14369;SDS011;7268;50.792;0.252;2023-04-09T11:58:14;17.15;;;6.15;;
14369;SDS011;7268;50.792;0.252;2023-04-09T12:00:41;21.38;;;7.53;;
14369;SDS011;7268;50.792;0.252;2023-04-09T12:03:09;16.27;;;7.57;;
14369;SDS011;7268;50.792;0.252;2023-04-09T12:05:37;18.00;;;7.75;;
14369;SDS011;7268;50.792;0.252;2023-04-09T12:08:08;13.65;;;5.55;;
14369;SDS011;7268;50.792;0.252;2023-04-09T12:10:36;21.33;;;7.70;;
14369;SDS011;7268;50.792;0.252;2023-04-09T12:13:04;23.50;;;6.80;;
14369;SDS011;7268;50.792;0.252;2023-04-09T12:15:33;22.52;;;7.88;;
14369;SDS011;7268;50.792;0.252;2023-04-09T12:18:01;13.50;;;6.10;;
14369;SDS011;7268;50.792;0.252;2023-04-09T12:22:56;23.83;;;7.68;;
14369;SDS011;7268;50.792;0.252;2023-04-09T12:25:26;14.38;;;6.38;;
14369;SDS011;7268;50.792;0.252;2023-04-09T12:27:54;26.58;;;8.32;;
14369;SDS011;7268;50.792;0.252;2023-04-09T12:30:22;14.23;;;5.85;;
14369;SDS011;7268;50.792;0.252;2023-04-09T12:32:50;14.23;;;5.82;;
14369;SDS011;7268;50.792;0.252;2023-04-09T12:35:18;22.42;;;8.27;;
14369;SDS011;7268;50.792;0.252;2023-04-09T12:37:45;21.42;;;7.00;;
14369;SDS011;7268;50.792;0.252;2023-04-09T12:40:13;15.60;;;5.60;;
14369;SDS011;7268;50.792;0.252;2023-04-09T12:42:41;22.77;;;7.20;;
14369;SDS011;7268;50.792;0.252;2023-04-09T12:45:09;22.10;;;6.20;;
14369;SDS011;7268;50.792;0.252;2023-04-09T12:47:37;17.10;;;6.30;;
14369;SDS011;7268;50.792;0.252;2023-04-09T12:50:07;16.52;;;6.63;;
14369;SDS011;7268;50.792;0.252;2023-04-09T12:52:35;18.75;;;6.03;;
14369;SDS011;7268;50.792;0.252;2023-04-09T12:55:03;18.60;;;6.72;;
14369;SDS011;7268;50.792;0.252;2023-04-09T12:57:31;17.02;;;4.55;;
14369;SDS011;7268;50.792;0.252;2023-04-09T12:59:58;18.75;;;5.97;;
14369;SDS011;7268;50.792;0.252;2023-04-09T13:02:26;25.58;;;7.32;;
14369;SDS011;7268;50.792;0.252;2023-04-09T13:04:53;26.08;;;7.25;;
14369;SDS011;7268;50.792;0.252;2023-04-09T13:07:21;18.13;;;7.22;;
14369;SDS011;7268;50.792;0.252;2023-04-09T13:09:48;17.67;;;7.05;;
14369;SDS011;7268;50.792;0.252;2023-04-09T13:12:16;14.27;;;6.40;;
14369;SDS011;7268;50.792;0.252;2023-04-09T13:14:44;16.88;;;7.05;;
14369;SDS011;7268;50.792;0.252;2023-04-09T13:17:12;13.88;;;5.05;;
14369;SDS011;7268;50.792;0.252;2023-04-09T13:19:40;24.77;;;6.50;;
14369;SDS011;7268;50.792;0.252;2023-04-09T13:22:08;18.73;;;6.75;;
14369;SDS011;7268;50.792;0.252;2023-04-09T13:24:36;19.23;;;6.68;;
14369;SDS011;7268;50.792;0.252;2023-04-09T13:27:04;18.27;;;7.50;;
14369;SDS011;7268;50.792;0.252;2023-04-09T13:29:32;17.02;;;6.03;;
14369;SDS011;7268;50.792;0.252;2023-04-09T13:31:59;25.70;;;7.63;;
14369;SDS011;7268;50.792;0.252;2023-04-09T13:34:32;27.83;;;8.30;;
14369;SDS011;7268;50.792;0.252;2023-04-09T13:37:03;18.35;;;7.13;;
14369;SDS011;7268;50.792;0.252;2023-04-09T13:39:30;22.98;;;6.78;;
14369;SDS011;7268;50.792;0.252;2023-04-09T13:41:58;18.98;;;7.43;;
14369;SDS011;7268;50.792;0.252;2023-04-09T13:44:30;21.60;;;7.32;;
14369;SDS011;7268;50.792;0.252;2023-04-09T13:46:58;17.58;;;7.75;;
14369;SDS011;7268;50.792;0.252;2023-04-09T13:49:25;16.85;;;6.50;;
14369;SDS011;7268;50.792;0.252;2023-04-09T13:51:52;21.65;;;6.93;;
14369;SDS011;7268;50.792;0.252;2023-04-09T13:54:21;22.83;;;6.93;;
14369;SDS011;7268;50.792;0.252;2023-04-09T13:56:48;25.27;;;7.35;;
14369;SDS011;7268;50.792;0.252;2023-04-09T13:59:16;17.23;;;6.88;;
14369;SDS011;7268;50.792;0.252;2023-04-09T14:01:43;20.98;;;6.68;;
14369;SDS011;7268;50.792;0.252;2023-04-09T14:04:11;15.32;;;6.10;;
14369;SDS011;7268;50.792;0.252;2023-04-09T14:06:38;21.38;;;7.60;;
14369;SDS011;7268;50.792;0.252;2023-04-09T14:09:07;24.40;;;7.75;;
14369;SDS011;7268;50.792;0.252;2023-04-09T14:11:35;13.07;;;6.45;;
14369;SDS011;7268;50.792;0.252;2023-04-09T14:14:02;14.35;;;4.88;;
14369;SDS011;7268;50.792;0.252;2023-04-09T14:16:29;20.02;;;6.70;;
14369;SDS011;7268;50.792;0.252;2023-04-09T14:18:57;18.90;;;6.57;;
14369;SDS011;7268;50.792;0.252;2023-04-09T14:21:24;19.90;;;6.90;;
14369;SDS011;7268;50.792;0.252;2023-04-09T14:23:52;23.10;;;8.52;;
14369;SDS011;7268;50.792;0.252;2023-04-09T14:26:19;20.25;;;6.90;;
14369;SDS011;7268;50.792;0.252;2023-04-09T14:28:49;21.75;;;8.27;;
14369;SDS011;7268;50.792;0.252;2023-04-09T14:31:17;14.63;;;6.28;;
14369;SDS011;7268;50.792;0.252;2023-04-09T14:33:48;16.17;;;6.85;;
14369;SDS011;7268;50.792;0.252;2023-04-09T14:36:16;15.65;;;6.82;;
14369;SDS011;7268;50.792;0.252;2023-04-09T14:38:43;23.58;;;7.18;;
14369;SDS011;7268;50.792;0.252;2023-04-09T14:41:11;16.50;;;6.30;;
14369;SDS011;7268;50.792;0.252;2023-04-09T14:43:38;23.13;;;8.48;;
14369;SDS011;7268;50.792;0.252;2023-04-09T14:46:06;17.55;;;7.03;;
14369;SDS011;7268;50.792;0.252;2023-04-09T14:48:39;21.75;;;7.75;;
14369;SDS011;7268;50.792;0.252;2023-04-09T14:51:10;16.63;;;7.55;;
14369;SDS011;7268;50.792;0.252;2023-04-09T14:53:38;25.67;;;8.65;;
14369;SDS011;7268;50.792;0.252;2023-04-09T14:56:06;19.00;;;5.35;;
14369;SDS011;7268;50.792;0.252;2023-04-09T14:58:33;16.20;;;5.57;;
14369;SDS011;7268;50.792;0.252;2023-04-09T15:01:01;16.50;;;6.55;;
14369;SDS011;7268;50.792;0.252;2023-04-09T15:03:29;22.85;;;7.68;;
14369;SDS011;7268;50.792;0.252;2023-04-09T15:05:57;17.50;;;7.20;;
14369;SDS011;7268;50.792;0.252;2023-04-09T15:08:25;19.35;;;8.00;;
14369;SDS011;7268;50.792;0.252;2023-04-09T15:10:52;24.27;;;8.05;;
14369;SDS011;7268;50.792;0.252;2023-04-09T15:13:20;22.05;;;9.18;;